createdAt,value
2022-08-03T00:00:33.346Z,19.41
2022-08-03T00:03:09.384Z,19.36
2022-08-03T00:05:37.336Z,19.38
2022-08-03T00:08:05.090Z,19.35
2022-08-03T00:10:42.093Z,19.21
2022-08-03T00:13:09.876Z,19.11
2022-08-03T00:15:56.225Z,19.04
2022-08-03T00:18:44.312Z,19.05
2022-08-03T00:25:06.040Z,19.06
2022-08-03T00:32:10.916Z,18.87
2022-08-03T00:34:58.564Z,18.93
2022-08-03T00:37:41.537Z,18.90
2022-08-03T00:40:30.140Z,18.82
2022-08-03T00:46:38.432Z,18.88
2022-08-03T00:49:06.025Z,18.87
2022-08-03T00:51:44.277Z,18.87
2022-08-03T00:54:11.825Z,18.88
2022-08-03T00:56:59.456Z,18.88
2022-08-03T00:59:28.410Z,18.81
2022-08-03T01:02:48.505Z,18.80
2022-08-03T01:05:16.115Z,18.89
2022-08-03T01:07:57.980Z,18.88
2022-08-03T01:10:42.705Z,18.84
2022-08-03T01:14:04.288Z,18.83
2022-08-03T01:16:37.481Z,18.81
2022-08-03T01:19:13.728Z,18.77
2022-08-03T01:21:54.007Z,18.73
2022-08-03T01:24:48.844Z,18.68
2022-08-03T01:27:23.514Z,18.71
2022-08-03T01:33:40.907Z,18.68
2022-08-03T01:36:13.918Z,18.72
2022-08-03T01:39:09.538Z,18.72
2022-08-03T01:41:59.535Z,18.69
2022-08-03T01:44:32.865Z,18.68
2022-08-03T01:47:03.497Z,18.68
2022-08-03T01:49:35.767Z,18.61
2022-08-03T01:52:05.567Z,18.58
2022-08-03T01:54:36.468Z,18.50
2022-08-03T01:57:04.959Z,18.45
2022-08-03T01:59:37.721Z,18.40
2022-08-03T02:02:16.057Z,18.33
2022-08-03T02:04:57.991Z,18.34
2022-08-03T02:10:47.964Z,18.31
2022-08-03T02:13:17.199Z,18.34
2022-08-03T02:15:45.165Z,18.37
2022-08-03T02:18:13.629Z,18.34
2022-08-03T02:20:43.501Z,18.30
2022-08-03T02:23:11.217Z,18.30
2022-08-03T02:25:44.841Z,18.29
2022-08-03T02:28:18.158Z,18.28
2022-08-03T02:42:03.233Z,18.29
2022-08-03T02:48:04.402Z,18.27
2022-08-03T03:04:33.176Z,17.99
2022-08-03T03:07:13.953Z,17.90
2022-08-03T03:09:57.979Z,17.82
2022-08-03T03:12:28.326Z,17.80
2022-08-03T03:14:55.876Z,17.75
2022-08-03T03:24:25.278Z,17.62
2022-08-03T03:27:16.473Z,17.61
2022-08-03T03:29:44.881Z,17.60
2022-08-03T03:32:12.636Z,17.62
2022-08-03T03:35:17.244Z,17.63
2022-08-03T03:37:44.814Z,17.66
2022-08-03T03:44:21.966Z,17.62
2022-08-03T03:47:17.392Z,17.64
2022-08-03T03:50:20.824Z,17.64
2022-08-03T03:52:48.382Z,17.65
2022-08-03T03:56:02.441Z,17.66
2022-08-03T03:58:50.963Z,17.74
2022-08-03T04:01:19.136Z,17.72
2022-08-03T04:03:46.944Z,17.68
2022-08-03T04:06:33.439Z,17.64
2022-08-03T04:12:32.847Z,17.56
2022-08-03T04:15:41.782Z,17.51
2022-08-03T04:18:14.092Z,17.52
2022-08-03T04:24:41.747Z,17.39
2022-08-03T04:28:19.690Z,17.37
2022-08-03T04:34:00.005Z,17.35
2022-08-03T04:36:57.825Z,17.34
2022-08-03T04:43:24.815Z,17.28
2022-08-03T04:45:53.384Z,17.24
2022-08-03T04:48:25.888Z,17.19
2022-08-03T04:50:54.644Z,17.18
2022-08-03T04:53:22.607Z,17.14
2022-08-03T04:55:50.919Z,17.14
2022-08-03T04:58:18.381Z,17.15
2022-08-03T05:01:08.162Z,17.10
2022-08-03T05:03:35.674Z,17.16
2022-08-03T05:06:09.848Z,17.17
2022-08-03T05:08:46.228Z,17.12
2022-08-03T05:11:56.699Z,17.07
2022-08-03T05:14:28.724Z,17.07
2022-08-03T05:21:14.559Z,17.03
2022-08-03T05:24:02.317Z,17.02
2022-08-03T05:33:51.723Z,16.96
2022-08-03T05:36:19.233Z,16.93
2022-08-03T05:42:25.320Z,16.92
2022-08-03T05:48:34.276Z,17.04
2022-08-03T05:54:57.761Z,17.18
2022-08-03T05:57:26.263Z,17.18
2022-08-03T05:59:58.641Z,17.17
2022-08-03T06:06:00.425Z,17.20
2022-08-03T06:08:28.215Z,17.20
2022-08-03T06:10:55.733Z,17.18
2022-08-03T06:14:00.568Z,17.12
2022-08-03T06:16:39.969Z,17.12
2022-08-03T06:23:00.161Z,17.01
2022-08-03T06:25:41.369Z,17.00
2022-08-03T06:28:14.979Z,16.95
2022-08-03T06:31:08.958Z,16.94
2022-08-03T06:34:31.508Z,16.93
2022-08-03T06:36:34.464Z,16.94
2022-08-03T06:39:02.351Z,16.91
2022-08-03T06:42:18.051Z,16.89
2022-08-03T06:44:48.317Z,16.97
2022-08-03T06:47:25.222Z,17.00
2022-08-03T06:50:12.385Z,17.06
2022-08-03T06:52:40.320Z,17.23
2022-08-03T06:55:26.220Z,17.28
2022-08-03T06:58:14.034Z,17.37
2022-08-03T07:00:42.412Z,17.44
2022-08-03T07:03:09.877Z,17.52
2022-08-03T07:05:37.483Z,17.59
2022-08-03T07:08:05.257Z,17.59
2022-08-03T07:10:32.671Z,17.59
2022-08-03T07:13:00.196Z,17.54
2022-08-03T07:15:38.275Z,17.53
2022-08-03T07:18:24.668Z,17.59
2022-08-03T07:21:11.087Z,17.58
2022-08-03T07:23:55.457Z,17.54
2022-08-03T07:26:22.916Z,17.56
2022-08-03T07:28:50.343Z,17.60
2022-08-03T07:31:17.817Z,17.62
2022-08-03T07:33:48.052Z,17.64
2022-08-03T07:36:15.476Z,17.76
2022-08-03T07:38:42.932Z,17.76
2022-08-03T07:41:10.467Z,17.79
2022-08-03T07:43:38.462Z,17.89
2022-08-03T07:46:08.017Z,17.92
2022-08-03T07:48:35.674Z,17.95
2022-08-03T07:51:04.108Z,18.06
2022-08-03T07:53:32.116Z,18.22
2022-08-03T07:56:05.928Z,18.38
2022-08-03T07:58:38.904Z,18.51
2022-08-03T08:01:07.445Z,18.62
2022-08-03T08:03:41.098Z,18.77
2022-08-03T08:06:32.908Z,19.05
2022-08-03T08:09:27.254Z,19.51
2022-08-03T08:11:56.708Z,19.96
2022-08-03T08:14:24.357Z,20.25
2022-08-03T08:16:52.190Z,20.53
2022-08-03T08:19:19.736Z,20.94
2022-08-03T08:22:29.760Z,21.38
2022-08-03T08:26:00.868Z,22.09
2022-08-03T08:28:32.620Z,22.70
2022-08-03T08:31:22.153Z,23.14
2022-08-03T08:34:06.417Z,23.48
2022-08-03T08:36:35.003Z,24.05
2022-08-03T08:39:42.863Z,24.44
2022-08-03T08:42:10.577Z,24.89
2022-08-03T08:44:56.878Z,25.14
2022-08-03T08:47:26.236Z,25.41
2022-08-03T08:50:09.349Z,25.53
2022-08-03T08:52:43.651Z,25.71
2022-08-03T08:55:14.661Z,25.74
2022-08-03T08:57:49.113Z,25.65
2022-08-03T09:00:17.644Z,25.83
2022-08-03T09:02:46.839Z,25.78
2022-08-03T09:05:16.930Z,25.68
2022-08-03T09:07:46.276Z,25.74
2022-08-03T09:10:19.090Z,25.69
2022-08-03T09:12:51.528Z,25.45
2022-08-03T09:15:28.274Z,25.27
2022-08-03T09:18:03.459Z,25.10
2022-08-03T09:20:33.907Z,24.53
2022-08-03T09:23:44.500Z,23.73
2022-08-03T09:25:59.826Z,22.83
2022-08-03T09:29:01.296Z,22.05
2022-08-03T09:31:43.169Z,21.62
2022-08-03T09:34:31.704Z,21.89
2022-08-03T09:36:59.205Z,22.30
2022-08-03T09:39:42.052Z,22.89
2022-08-03T09:42:23.892Z,22.73
2022-08-03T09:45:26.484Z,22.33
2022-08-03T09:47:54.027Z,22.22
2022-08-03T09:50:21.580Z,22.01
2022-08-03T09:52:52.854Z,21.81
2022-08-03T09:55:23.822Z,22.06
2022-08-03T09:58:13.878Z,22.24
2022-08-03T10:01:04.263Z,22.23
2022-08-03T10:04:04.407Z,22.30
2022-08-03T10:06:32.480Z,22.40
2022-08-03T10:09:11.836Z,22.43
2022-08-03T10:11:42.245Z,22.79
2022-08-03T10:14:32.711Z,23.39
2022-08-03T10:17:00.370Z,23.91
2022-08-03T10:19:28.086Z,24.31
2022-08-03T10:21:58.037Z,24.65
2022-08-03T10:24:28.453Z,25.04
2022-08-03T10:27:08.110Z,25.09
2022-08-03T10:29:39.220Z,24.67
2022-08-03T10:32:19.199Z,24.33
2022-08-03T10:34:50.714Z,24.01
2022-08-03T10:37:32.479Z,23.63
2022-08-03T10:40:02.649Z,23.13
2022-08-03T10:42:32.068Z,23.30
2022-08-03T10:45:05.271Z,23.50
2022-08-03T10:47:34.731Z,23.74
2022-08-03T10:50:03.204Z,23.64
2022-08-03T10:52:31.854Z,23.25
2022-08-03T10:55:19.818Z,23.20
2022-08-03T10:57:58.490Z,23.54
2022-08-03T11:00:30.253Z,23.68
2022-08-03T11:03:17.803Z,23.73
2022-08-03T11:05:48.368Z,23.83
2022-08-03T11:08:32.071Z,23.67
2022-08-03T11:11:28.841Z,23.78
2022-08-03T11:14:18.849Z,23.94
2022-08-03T11:17:08.036Z,23.79
2022-08-03T11:19:57.400Z,23.63
2022-08-03T11:22:46.187Z,23.53
2022-08-03T11:25:53.969Z,23.30
2022-08-03T11:28:28.778Z,23.31
2022-08-03T11:30:56.401Z,23.32
2022-08-03T11:33:31.388Z,23.28
2022-08-03T11:36:02.639Z,23.13
2022-08-03T11:38:30.529Z,23.10
2022-08-03T11:41:02.839Z,23.00
2022-08-03T11:43:31.304Z,22.91
2022-08-03T11:46:03.693Z,22.70
2022-08-03T11:48:35.181Z,22.60
2022-08-03T11:51:04.133Z,22.63
2022-08-03T11:53:32.068Z,22.71
2022-08-03T11:56:01.369Z,22.66
2022-08-03T11:59:16.753Z,22.61
2022-08-03T12:02:01.648Z,22.57
2022-08-03T12:04:30.664Z,22.62
2022-08-03T12:06:59.702Z,22.63
2022-08-03T12:09:30.570Z,22.61
2022-08-03T12:12:01.339Z,22.71
2022-08-03T12:14:48.638Z,22.85
2022-08-03T12:17:18.272Z,22.90
2022-08-03T12:19:46.194Z,23.02
2022-08-03T12:22:16.952Z,23.06
2022-08-03T12:24:51.993Z,23.10
2022-08-03T12:27:29.939Z,22.98
2022-08-03T12:29:59.945Z,23.00
2022-08-03T12:32:29.118Z,22.97
2022-08-03T12:35:02.017Z,23.07
2022-08-03T12:37:30.227Z,23.19
2022-08-03T12:40:07.875Z,23.20
2022-08-03T12:42:39.451Z,23.30
2022-08-03T12:45:39.576Z,23.45
2022-08-03T12:48:13.082Z,23.45
2022-08-03T12:50:41.400Z,23.49
2022-08-03T12:53:10.330Z,23.54
2022-08-03T12:55:56.998Z,23.52
2022-08-03T12:58:36.102Z,23.58
2022-08-03T13:01:10.143Z,23.73
2022-08-03T13:03:49.859Z,23.72
2022-08-03T13:06:21.106Z,23.52
2022-08-03T13:08:49.445Z,23.27
2022-08-03T13:11:23.675Z,22.98
2022-08-03T13:14:16.786Z,22.65
2022-08-03T13:16:49.449Z,22.47
2022-08-03T13:19:17.156Z,22.34
2022-08-03T13:22:01.904Z,22.23
2022-08-03T13:24:33.308Z,22.18
2022-08-03T13:28:01.958Z,22.20
2022-08-03T13:29:48.651Z,22.23
2022-08-03T13:32:21.442Z,22.23
2022-08-03T13:34:48.986Z,22.11
2022-08-03T13:37:16.412Z,22.05
2022-08-03T13:39:57.401Z,21.94
2022-08-03T13:42:31.668Z,21.80
2022-08-03T13:44:59.259Z,21.86
2022-08-03T13:48:05.702Z,22.15
2022-08-03T13:50:33.600Z,22.38
2022-08-03T13:53:09.490Z,22.51
2022-08-03T13:59:01.963Z,22.94
2022-08-03T14:01:54.154Z,23.49
2022-08-03T14:04:22.207Z,24.05
2022-08-03T14:06:51.446Z,24.45
2022-08-03T14:09:19.059Z,24.66
2022-08-03T14:12:04.142Z,24.88
2022-08-03T14:14:56.992Z,25.27
2022-08-03T14:17:49.943Z,25.49
2022-08-03T14:20:37.497Z,25.44
2022-08-03T14:23:05.513Z,25.36
2022-08-03T14:25:50.438Z,25.22
2022-08-03T14:28:28.811Z,24.94
2022-08-03T14:30:58.299Z,24.86
2022-08-03T14:33:26.046Z,25.03
2022-08-03T14:35:53.692Z,25.06
2022-08-03T14:38:21.651Z,24.96
2022-08-03T14:40:49.624Z,24.88
2022-08-03T14:44:08.836Z,24.75
2022-08-03T14:46:36.361Z,24.95
2022-08-03T14:50:31.147Z,25.14
2022-08-03T14:51:53.957Z,25.11
2022-08-03T14:54:22.790Z,24.90
2022-08-03T14:56:50.635Z,24.94
2022-08-03T14:59:18.150Z,25.07
2022-08-03T15:02:06.261Z,25.25
2022-08-03T15:04:34.158Z,25.17
2022-08-03T15:07:23.230Z,25.23
2022-08-03T15:10:11.153Z,25.17
2022-08-03T15:12:38.616Z,25.07
2022-08-03T15:15:14.071Z,25.17
2022-08-03T15:17:42.890Z,25.33
2022-08-03T15:20:26.551Z,25.21
2022-08-03T15:22:56.537Z,24.99
2022-08-03T15:26:03.664Z,24.67
2022-08-03T15:28:11.558Z,24.58
2022-08-03T15:30:39.076Z,24.48
2022-08-03T15:33:12.413Z,24.40
2022-08-03T15:35:40.017Z,24.43
2022-08-03T15:38:09.686Z,24.27
2022-08-03T15:40:37.864Z,24.18
2022-08-03T15:43:05.359Z,24.16
2022-08-03T15:45:35.368Z,24.23
2022-08-03T15:48:07.111Z,24.28
2022-08-03T15:50:34.875Z,24.38
2022-08-03T15:53:02.364Z,24.52
2022-08-03T15:55:34.683Z,24.60
2022-08-03T15:59:04.532Z,24.50
2022-08-03T16:00:49.808Z,24.34
2022-08-03T16:03:17.356Z,24.12
2022-08-03T16:05:44.787Z,23.95
2022-08-03T16:08:34.556Z,23.80
2022-08-03T16:11:28.622Z,23.60
2022-08-03T16:14:13.073Z,23.72
2022-08-03T16:16:43.723Z,23.89
2022-08-03T16:19:11.313Z,23.95
2022-08-03T16:21:47.977Z,23.85
2022-08-03T16:24:19.794Z,23.74
2022-08-03T16:26:56.406Z,23.76
2022-08-03T16:29:44.493Z,23.70
2022-08-03T16:35:45.241Z,23.73
2022-08-03T16:38:18.178Z,23.78
2022-08-03T16:40:51.742Z,23.98
2022-08-03T16:43:22.374Z,24.16
2022-08-03T16:45:50.233Z,24.21
2022-08-03T16:48:28.348Z,24.12
2022-08-03T16:50:55.883Z,24.07
2022-08-03T16:53:33.619Z,24.07
2022-08-03T16:56:54.307Z,24.07
2022-08-03T16:59:36.365Z,24.11
2022-08-03T17:02:09.869Z,24.27
2022-08-03T17:05:46.826Z,24.41
2022-08-03T17:08:43.137Z,24.61
2022-08-03T17:11:22.843Z,25.05
2022-08-03T17:13:53.109Z,24.94
2022-08-03T17:16:20.927Z,24.77
2022-08-03T17:19:02.109Z,24.59
2022-08-03T17:21:39.031Z,24.29
2022-08-03T17:24:12.818Z,24.08
2022-08-03T17:26:45.956Z,24.15
2022-08-03T17:29:35.277Z,24.15
2022-08-03T17:32:10.194Z,24.10
2022-08-03T17:34:43.894Z,23.92
2022-08-03T17:37:50.071Z,23.77
2022-08-03T17:40:17.397Z,23.63
2022-08-03T17:42:50.556Z,23.41
2022-08-03T17:45:18.785Z,23.27
2022-08-03T17:47:57.371Z,23.09
2022-08-03T17:50:37.188Z,22.99
2022-08-03T17:53:14.421Z,22.89
2022-08-03T17:55:58.457Z,22.76
2022-08-03T17:58:53.681Z,22.58
2022-08-03T18:01:59.186Z,22.50
2022-08-03T18:05:16.018Z,22.35
2022-08-03T18:08:01.690Z,22.27
2022-08-03T18:10:34.923Z,22.30
2022-08-03T18:13:19.552Z,22.31
2022-08-03T18:15:54.477Z,22.34
2022-08-03T18:18:38.706Z,22.24
2022-08-03T18:21:09.331Z,22.25
2022-08-03T18:23:52.497Z,22.26
2022-08-03T18:26:21.603Z,22.22
2022-08-03T18:28:52.377Z,22.23
2022-08-03T18:31:33.156Z,22.26
2022-08-03T18:34:32.980Z,22.20
2022-08-03T18:37:52.446Z,22.10
2022-08-03T18:40:20.627Z,22.07
2022-08-03T18:42:52.973Z,21.96
2022-08-03T18:45:55.634Z,21.82
2022-08-03T18:48:27.049Z,21.78
2022-08-03T18:51:09.902Z,21.49
2022-08-03T18:54:08.482Z,21.30
2022-08-03T18:56:56.021Z,21.12
2022-08-03T19:00:05.313Z,21.07
2022-08-03T19:02:58.889Z,21.00
2022-08-03T19:06:02.469Z,20.98
2022-08-03T19:08:37.646Z,21.00
2022-08-03T19:11:10.142Z,21.04
2022-08-03T19:13:50.447Z,20.90
2022-08-03T19:16:42.100Z,20.85
2022-08-03T19:19:14.497Z,20.83
2022-08-03T19:21:44.472Z,20.76
2022-08-03T19:24:13.950Z,20.57
2022-08-03T19:26:43.164Z,20.57
2022-08-03T19:29:17.849Z,20.56
2022-08-03T19:31:59.472Z,20.52
2022-08-03T19:34:29.960Z,20.47
2022-08-03T19:36:59.065Z,20.34
2022-08-03T19:39:27.502Z,20.30
2022-08-03T19:41:58.803Z,20.32
2022-08-03T19:44:43.440Z,20.24
2022-08-03T19:47:16.915Z,20.15
2022-08-03T19:50:04.683Z,20.15
2022-08-03T19:52:36.656Z,20.04
2022-08-03T19:55:12.432Z,19.83
2022-08-03T19:57:45.614Z,19.75
2022-08-03T20:00:19.549Z,19.74
2022-08-03T20:03:21.676Z,19.71
2022-08-03T20:05:52.158Z,19.59
2022-08-03T20:08:35.440Z,19.44
2022-08-03T20:11:11.828Z,19.44
2022-08-03T20:13:39.817Z,19.34
2022-08-03T20:16:09.085Z,19.26
2022-08-03T20:18:39.547Z,19.22
2022-08-03T20:21:15.338Z,19.19
2022-08-03T20:24:01.861Z,19.24
2022-08-03T20:26:34.140Z,19.22
2022-08-03T20:29:09.886Z,19.22
2022-08-03T20:31:37.997Z,19.19
2022-08-03T20:34:06.579Z,19.11
2022-08-03T20:36:34.243Z,19.06
2022-08-03T20:39:07.441Z,18.99
2022-08-03T20:41:35.702Z,18.88
2022-08-03T20:44:04.674Z,18.81
2022-08-03T20:46:40.648Z,18.75
2022-08-03T20:49:20.378Z,18.66
2022-08-03T20:51:53.120Z,18.62
2022-08-03T20:54:29.797Z,18.60
2022-08-03T20:57:04.483Z,18.61
2022-08-03T20:59:50.308Z,18.53
2022-08-03T21:02:28.886Z,18.46
2022-08-03T21:05:51.208Z,18.44
2022-08-03T21:08:22.537Z,18.36
2022-08-03T21:10:52.720Z,18.29
2022-08-03T21:13:25.051Z,18.27
2022-08-03T21:16:06.420Z,18.22
2022-08-03T21:18:48.776Z,18.19
2022-08-03T21:21:55.121Z,18.18
2022-08-03T21:24:30.552Z,18.16
2022-08-03T21:26:58.682Z,18.02
2022-08-03T21:29:28.539Z,18.08
2022-08-03T21:31:58.453Z,17.98
2022-08-03T21:34:27.241Z,17.91
2022-08-03T21:36:54.751Z,17.95
2022-08-03T21:39:22.311Z,18.00
2022-08-03T21:41:49.782Z,18.04
2022-08-03T21:44:32.256Z,17.87
2022-08-03T21:47:11.232Z,17.90
2022-08-03T21:50:05.608Z,17.88
2022-08-03T21:52:32.733Z,17.75
2022-08-03T21:55:05.914Z,17.72
2022-08-03T21:57:39.957Z,17.64
2022-08-03T22:00:15.677Z,17.63
2022-08-03T22:02:54.832Z,17.64
2022-08-03T22:05:44.314Z,17.60
2022-08-03T22:08:20.618Z,17.49
2022-08-03T22:10:49.311Z,17.41
2022-08-03T22:13:43.250Z,17.32
2022-08-03T22:16:26.767Z,17.27
2022-08-03T22:18:54.225Z,17.13
2022-08-03T22:21:28.120Z,16.99
2022-08-03T22:24:06.576Z,16.92
2022-08-03T22:26:36.746Z,16.86
2022-08-03T22:29:08.110Z,16.87
2022-08-03T22:31:59.030Z,16.76
2022-08-03T22:34:27.182Z,16.60
2022-08-03T22:37:01.558Z,16.50
2022-08-03T22:39:30.262Z,16.42
2022-08-03T22:42:01.281Z,16.35
2022-08-03T22:44:29.689Z,16.32
2022-08-03T22:46:58.418Z,16.24
2022-08-03T22:49:28.391Z,16.10
2022-08-03T22:51:56.482Z,16.07
2022-08-03T22:54:24.424Z,16.03
2022-08-03T22:56:52.785Z,16.01
2022-08-03T22:59:41.199Z,16.03
2022-08-03T23:02:20.878Z,16.08
2022-08-03T23:04:55.225Z,16.02
2022-08-03T23:07:32.992Z,15.89
2022-08-03T23:10:03.712Z,15.86
2022-08-03T23:12:38.365Z,15.80
2022-08-03T23:15:08.936Z,15.73
2022-08-03T23:17:57.597Z,15.68
2022-08-03T23:20:26.987Z,15.64
2022-08-03T23:22:57.990Z,15.61
2022-08-03T23:25:26.745Z,15.61
2022-08-03T23:28:05.067Z,15.59
2022-08-03T23:30:37.372Z,15.55
2022-08-03T23:33:06.000Z,15.55
2022-08-03T23:36:27.707Z,15.49
2022-08-03T23:38:40.250Z,15.46
2022-08-03T23:41:09.250Z,15.43
2022-08-03T23:43:51.757Z,15.31
2022-08-03T23:46:27.543Z,15.29
2022-08-03T23:48:56.335Z,15.32
